Time;durP1;ratioP1;P1;durP2;ratioP2;P2;SDS_P1;SDS_P2;PMS_P1;PMS_P2;Temp;Humidity;BMP_temperature;BMP_pressure;BME280_temperature;BME280_humidity;BME280_pressure;Samples;Min_cycle;Max_cycle;Signal;HPM_P1;HPM_P2
2021/08/17 00:02:06;;;;;;;22.37;17.15;;;;;;;18.41;91.14;97094.12;1766296;81;21449;-79
2021/08/17 00:04:33;;;;;;;18.85;14.98;;;;;;;18.40;91.47;97090.56;1766527;81;20983;-79
2021/08/17 00:06:59;;;;;;;21.93;15.58;;;;;;;18.40;91.16;97080.34;1766201;81;20980;-80
2021/08/17 00:09:26;;;;;;;16.75;15.10;;;;;;;18.39;91.59;97087.52;1765151;81;21007;-80
2021/08/17 00:11:52;;;;;;;19.73;14.23;;;;;;;18.41;91.42;97077.55;1763791;81;21028;-79
2021/08/17 00:14:19;;;;;;;17.85;14.70;;;;;;;18.42;91.64;97073.89;1764500;81;20964;-80
2021/08/17 00:16:45;;;;;;;16.00;13.28;;;;;;;18.43;91.60;97081.42;1766586;81;21406;-80
2021/08/17 00:19:12;;;;;;;16.32;14.47;;;;;;;18.44;92.37;97078.63;1766395;81;21031;-80
2021/08/17 00:21:38;;;;;;;17.32;14.43;;;;;;;18.46;92.20;97076.70;1766435;80;20973;-80
2021/08/17 00:24:05;;;;;;;18.40;13.32;;;;;;;18.52;91.89;97071.34;1766580;80;21007;-80
2021/08/17 00:26:31;;;;;;;20.27;14.45;;;;;;;18.55;91.97;97069.77;1766468;81;21511;-80
2021/08/17 00:29:00;;;;;;;15.32;13.45;;;;;;;18.56;91.77;97075.50;1766099;80;21000;-80
2021/08/17 00:31:26;;;;;;;18.00;13.38;;;;;;;18.58;92.54;97071.36;1766408;81;21044;-80
2021/08/17 00:33:53;;;;;;;18.37;13.18;;;;;;;18.55;92.60;97076.48;1766483;81;21424;-80
2021/08/17 00:36:19;;;;;;;18.55;13.03;;;;;;;18.55;91.83;97072.92;1765645;81;20992;-80
2021/08/17 00:38:47;;;;;;;16.07;12.85;;;;;;;18.50;92.36;97081.34;1766389;81;20968;-80
2021/08/17 00:41:14;;;;;;;14.40;12.33;;;;;;;18.50;91.85;97083.16;1764984;81;21024;-80
2021/08/17 00:43:40;;;;;;;14.38;12.75;;;;;;;18.42;92.51;97087.30;1765055;81;20972;-80
2021/08/17 00:46:08;;;;;;;16.50;12.33;;;;;;;18.38;93.07;97076.91;1764567;81;21541;-80
2021/08/17 00:48:36;;;;;;;19.10;12.85;;;;;;;18.36;92.52;97081.07;1764670;81;21370;-80
2021/08/17 00:51:08;;;;;;;14.28;12.75;;;;;;;18.37;92.48;97088.14;1765882;80;21003;-80
2021/08/17 00:53:36;;;;;;;14.98;12.82;;;;;;;18.35;91.68;97083.36;1766183;81;20933;-80
2021/08/17 00:56:05;;;;;;;15.50;13.88;;;;;;;18.33;92.35;97082.63;1766266;81;20972;-80
2021/08/17 00:58:31;;;;;;;16.77;14.83;;;;;;;18.28;91.92;97076.77;1766318;81;20987;-80
2021/08/17 01:00:58;;;;;;;21.85;15.55;;;;;;;18.24;92.18;97074.81;1766305;81;21004;-80
2021/08/17 01:03:27;;;;;;;16.15;14.47;;;;;;;18.20;91.98;97074.16;1766203;81;21003;-80
2021/08/17 01:05:59;;;;;;;20.05;15.83;;;;;;;18.17;91.96;97084.27;1766330;81;21011;-80
2021/08/17 01:08:28;;;;;;;20.70;16.77;;;;;;;18.10;91.28;97079.86;1766110;81;21441;-80
2021/08/17 01:10:55;;;;;;;19.02;15.20;;;;;;;18.03;91.36;97079.42;1765199;81;20969;-81
2021/08/17 01:13:24;;;;;;;21.05;16.02;;;;;;;17.97;91.74;97077.72;1765038;81;20988;-80
2021/08/17 01:15:52;;;;;;;22.87;17.15;;;;;;;17.92;92.62;97079.38;1765048;81;20995;-80
2021/08/17 01:18:18;;;;;;;23.32;17.50;;;;;;;17.86;91.77;97077.16;1740670;81;21372;-80
2021/08/17 01:20:49;;;;;;;20.72;16.90;;;;;;;17.82;91.75;97076.55;1772914;80;20988;-80
2021/08/17 01:23:20;;;;;;;21.87;17.62;;;;;;;17.79;91.38;97076.29;1766317;80;21007;-80
2021/08/17 01:25:47;;;;;;;21.57;17.05;;;;;;;17.76;91.49;97072.48;1765875;80;21073;-80
2021/08/17 01:28:14;;;;;;;27.07;18.32;;;;;;;17.72;91.20;97064.80;1765073;81;21379;-80
2021/08/17 01:30:42;;;;;;;21.77;17.62;;;;;;;17.66;91.13;97065.59;1765405;81;21000;-81
2021/08/17 01:33:09;;;;;;;23.50;17.50;;;;;;;17.62;91.66;97063.27;1765023;81;21008;-80
2021/08/17 01:35:35;;;;;;;22.42;18.55;;;;;;;17.57;91.37;97062.75;1766096;81;20952;-80
2021/08/17 01:38:05;;;;;;;23.83;18.52;;;;;;;17.52;91.48;97056.41;1765640;81;21037;-80
2021/08/17 01:40:32;;;;;;;21.17;18.12;;;;;;;17.49;91.55;97057.48;1765980;81;21036;-81
2021/08/17 01:42:59;;;;;;;22.37;17.17;;;;;;;17.45;91.27;97051.11;1764924;81;21358;-81
2021/08/17 01:45:25;;;;;;;23.30;16.80;;;;;;;17.39;91.11;97047.91;1764729;81;20988;-81
2021/08/17 01:47:54;;;;;;;20.80;18.05;;;;;;;17.35;91.44;97050.44;1764794;81;21020;-81
2021/08/17 01:50:21;;;;;;;23.83;17.02;;;;;;;17.37;91.53;97045.84;1779851;80;21003;-81
2021/08/17 01:52:47;;;;;;;21.33;15.63;;;;;;;17.37;91.47;97048.52;1797643;80;21007;-81
2021/08/17 01:55:14;;;;;;;22.75;15.20;;;;;;;17.37;94.01;97048.99;1797805;80;20965;-81
2021/08/17 01:57:42;;;;;;;17.45;14.20;;;;;;;17.37;92.07;97046.31;1797522;80;21361;-80
2021/08/17 02:00:11;;;;;;;20.08;14.80;;;;;;;17.39;92.79;97041.22;1797569;80;21441;-80
2021/08/17 02:02:38;;;;;;;16.75;13.30;;;;;;;17.40;92.16;97044.77;1768413;80;21011;-80
2021/08/17 02:05:06;;;;;;;17.50;13.32;;;;;;;17.38;92.59;97042.19;1765356;81;21394;-80
2021/08/17 02:07:33;;;;;;;15.45;13.22;;;;;;;17.38;91.98;97041.32;1764591;81;21095;-80
2021/08/17 02:09:59;;;;;;;14.87;13.28;;;;;;;17.35;92.10;97044.24;1764768;81;20973;-80
2021/08/17 02:12:26;;;;;;;18.60;14.15;;;;;;;17.35;92.12;97045.58;1764736;81;21358;-80
2021/08/17 02:14:52;;;;;;;17.77;13.60;;;;;;;17.37;92.22;97041.83;1764867;81;21016;-80
2021/08/17 02:17:18;;;;;;;16.15;13.70;;;;;;;17.39;92.13;97046.58;1765822;81;20975;-81
2021/08/17 02:19:46;;;;;;;17.70;14.03;;;;;;;17.40;92.44;97043.42;1771967;80;21006;-80
2021/08/17 02:22:13;;;;;;;18.15;12.73;;;;;;;17.39;91.66;97043.89;1785281;80;21043;-80
2021/08/17 02:24:40;;;;;;;16.27;12.47;;;;;;;17.36;91.80;97040.09;1765815;80;20984;-80
2021/08/17 02:27:07;;;;;;;14.18;12.58;;;;;;;17.34;91.87;97039.36;1765322;81;21004;-81
2021/08/17 02:29:34;;;;;;;16.85;13.15;;;;;;;17.31;91.66;97034.72;1765229;81;20965;-81
2021/08/17 02:32:00;;;;;;;16.95;13.75;;;;;;;17.28;91.58;97035.30;1766400;81;21004;-81
2021/08/17 02:34:27;;;;;;;17.57;12.70;;;;;;;17.26;91.99;97033.22;1764795;81;21018;-81
2021/08/17 02:36:53;;;;;;;16.97;13.43;;;;;;;17.25;91.98;97022.14;1765035;81;20987;-81
2021/08/17 02:39:20;;;;;;;16.35;13.48;;;;;;;17.26;92.01;97023.85;1764957;80;21092;-81
2021/08/17 02:41:46;;;;;;;15.18;13.40;;;;;;;17.22;91.83;97030.39;1764856;81;21000;-81
2021/08/17 02:44:13;;;;;;;20.17;12.85;;;;;;;17.20;91.57;97022.97;1765503;81;20984;-80
2021/08/17 02:46:39;;;;;;;16.20;12.85;;;;;;;17.19;91.78;97023.07;1766576;81;20991;-80
2021/08/17 02:49:06;;;;;;;19.52;14.15;;;;;;;17.15;91.58;97019.27;1766695;80;21011;-80
2021/08/17 02:51:33;;;;;;;20.12;13.88;;;;;;;17.12;92.49;97021.31;1766913;80;20968;-80
2021/08/17 02:53:59;;;;;;;15.70;14.10;;;;;;;17.15;91.82;97025.12;1765808;80;20976;-80
2021/08/17 02:56:25;;;;;;;23.10;14.23;;;;;;;17.14;91.72;97016.69;1766071;81;20984;-80
2021/08/17 02:58:52;;;;;;;20.82;15.70;;;;;;;17.13;91.78;97019.88;1766338;81;21039;-80
2021/08/17 03:01:18;;;;;;;22.45;14.95;;;;;;;17.11;92.22;97005.73;1766319;81;20964;-81
2021/08/17 03:03:45;;;;;;;16.27;14.38;;;;;;;17.08;91.85;97008.64;1766552;81;20992;-80
2021/08/17 03:06:11;;;;;;;22.55;16.67;;;;;;;17.05;91.35;97007.98;1766469;81;21031;-80
2021/08/17 03:08:38;;;;;;;19.65;15.75;;;;;;;17.02;91.35;97004.55;1766397;81;20992;-81
2021/08/17 03:11:05;;;;;;;18.98;14.75;;;;;;;16.95;91.19;97008.64;1766624;81;21382;-80
2021/08/17 03:13:32;;;;;;;18.55;16.25;;;;;;;16.88;91.18;97002.00;1766434;81;21418;-81
2021/08/17 03:15:59;;;;;;;19.20;15.58;;;;;;;16.83;91.58;97002.34;1765984;81;20980;-81
2021/08/17 03:18:25;;;;;;;20.30;15.55;;;;;;;16.80;91.30;97006.56;1757079;81;21459;-81
2021/08/17 03:20:53;;;;;;;19.37;16.90;;;;;;;16.74;91.22;97007.01;1789982;80;21012;-81
2021/08/17 03:23:20;;;;;;;18.23;16.17;;;;;;;16.72;91.37;97003.56;1775788;80;21465;-81
2021/08/17 03:25:48;;;;;;;24.27;17.70;;;;;;;16.69;92.09;97002.47;1765255;81;20960;-80
2021/08/17 03:28:15;;;;;;;19.17;17.17;;;;;;;16.63;91.43;96999.73;1764003;80;20968;-80
2021/08/17 03:30:41;;;;;;;25.05;16.77;;;;;;;16.60;91.87;96998.13;1769550;81;21539;-80
2021/08/17 03:33:08;;;;;;;24.70;17.57;;;;;;;16.58;91.42;97004.55;1771492;81;20979;-80
2021/08/17 03:35:34;;;;;;;21.80;17.30;;;;;;;16.55;91.47;97010.10;1772767;81;20927;-80
2021/08/17 03:38:01;;;;;;;20.97;17.50;;;;;;;16.54;92.01;97005.25;1772867;81;20959;-79
2021/08/17 03:40:27;;;;;;;22.95;18.07;;;;;;;16.52;91.89;97001.81;1773036;81;20978;-80
2021/08/17 03:42:55;;;;;;;20.30;17.25;;;;;;;16.50;91.56;97000.58;1771956;81;21425;-80
2021/08/17 03:45:22;;;;;;;21.97;17.10;;;;;;;16.52;92.05;97000.98;1771738;81;20995;-80
2021/08/17 03:47:50;;;;;;;19.67;16.30;;;;;;;16.56;91.70;96998.47;1772747;81;20994;-80
2021/08/17 03:50:18;;;;;;;19.00;14.73;;;;;;;16.59;92.69;97001.77;1792128;79;20976;-80
2021/08/17 03:52:46;;;;;;;15.93;13.85;;;;;;;16.61;92.90;96995.82;1802959;79;20984;-79
2021/08/17 03:55:15;;;;;;;17.25;15.00;;;;;;;16.70;92.93;96996.14;1772923;80;21026;-80
2021/08/17 03:57:41;;;;;;;20.97;14.60;;;;;;;16.74;92.62;96995.80;1772898;81;20983;-80
2021/08/17 04:00:12;;;;;;;15.72;13.80;;;;;;;16.82;93.19;97002.45;1772718;81;20970;-81
2021/08/17 04:02:41;;;;;;;15.78;14.13;;;;;;;16.91;92.76;97006.28;1742789;81;20939;-81
2021/08/17 04:05:10;;;;;;;15.28;13.50;;;;;;;16.98;92.61;97011.08;1772945;81;20991;-81
2021/08/17 04:07:37;;;;;;;17.17;13.08;;;;;;;17.06;92.97;97016.41;1772231;81;21014;-81
2021/08/17 04:10:07;;;;;;;19.50;14.50;;;;;;;17.13;92.40;97013.66;1772969;81;21054;-81
2021/08/17 04:12:34;;;;;;;21.68;14.00;;;;;;;17.18;92.56;97018.19;1771411;81;20990;-81
2021/08/17 04:15:01;;;;;;;15.10;13.50;;;;;;;17.27;92.57;97012.17;1771327;81;21019;-80
2021/08/17 04:17:28;;;;;;;21.07;14.03;;;;;;;17.39;92.70;97013.56;1771328;81;20955;-80
2021/08/17 04:19:54;;;;;;;18.30;13.72;;;;;;;17.50;92.11;97016.33;1786090;79;20933;-80
2021/08/17 04:22:21;;;;;;;17.80;13.32;;;;;;;17.57;91.96;97019.89;1786935;79;21027;-80
2021/08/17 04:24:48;;;;;;;17.30;13.28;;;;;;;17.64;91.53;97015.77;1758866;81;21389;-80
2021/08/17 04:27:16;;;;;;;18.60;14.10;;;;;;;17.75;91.50;97017.66;1773571;80;20936;-80
2021/08/17 04:29:44;;;;;;;17.85;13.55;;;;;;;17.82;91.17;97018.92;1771431;81;21096;-80
2021/08/17 04:32:12;;;;;;;17.57;13.32;;;;;;;17.90;90.46;97017.84;1771425;80;21016;-80
2021/08/17 04:34:38;;;;;;;14.98;13.38;;;;;;;17.98;90.44;97007.88;1772490;81;21373;-81
2021/08/17 04:37:06;;;;;;;18.12;14.00;;;;;;;18.08;90.44;97005.40;1772631;81;21046;-80
2021/08/17 04:39:33;;;;;;;19.27;13.90;;;;;;;18.16;90.19;97010.17;1771190;81;20979;-80
2021/08/17 04:42:00;;;;;;;17.45;14.43;;;;;;;18.18;89.76;97008.21;1771808;80;21410;-80
2021/08/17 04:44:26;;;;;;;16.87;14.10;;;;;;;18.23;89.64;97004.69;1777037;79;21036;-81
2021/08/17 04:46:53;;;;;;;17.05;15.23;;;;;;;18.29;89.33;97004.24;1774484;79;21311;-81
2021/08/17 04:49:19;;;;;;;19.52;14.70;;;;;;;18.37;89.45;97003.64;1775897;79;21027;-81
2021/08/17 04:51:46;;;;;;;20.37;14.83;;;;;;;18.41;89.38;96997.08;1771901;81;21314;-81
2021/08/17 04:54:13;;;;;;;20.48;16.02;;;;;;;18.47;89.45;96997.06;1772023;81;20989;-81
2021/08/17 04:56:43;;;;;;;22.15;15.40;;;;;;;18.51;89.35;96990.48;1772766;81;20971;-81
2021/08/17 04:59:09;;;;;;;23.27;16.25;;;;;;;18.53;89.33;96988.55;1772320;81;21440;-81
2021/08/17 05:01:36;;;;;;;20.37;17.17;;;;;;;18.54;89.25;96987.58;1771970;79;20924;-80
2021/08/17 05:04:04;;;;;;;22.00;17.32;;;;;;;18.51;89.46;96990.48;1771398;81;21038;-80
2021/08/17 05:06:30;;;;;;;20.32;18.17;;;;;;;18.51;89.37;96993.17;1771126;81;20976;-81
2021/08/17 05:08:57;;;;;;;27.27;19.52;;;;;;;18.50;89.49;96995.97;1772360;81;21042;-81
2021/08/17 05:11:23;;;;;;;24.37;19.52;;;;;;;18.50;89.41;96993.28;1772192;80;21362;-81
2021/08/17 05:13:49;;;;;;;25.02;19.98;;;;;;;18.52;89.73;96990.84;1772868;81;21031;-81
2021/08/17 05:16:15;;;;;;;27.73;20.15;;;;;;;18.55;90.15;97000.01;1772864;81;20947;-81
2021/08/17 05:18:42;;;;;;;22.95;20.60;;;;;;;18.59;90.02;96996.11;1773016;81;21002;-81
2021/08/17 05:21:08;;;;;;;27.87;20.62;;;;;;;18.64;90.43;96999.77;1776764;79;20925;-81
2021/08/17 05:23:35;;;;;;;27.87;20.57;;;;;;;18.69;91.14;97004.78;1792874;79;20975;-81
2021/08/17 05:26:01;;;;;;;25.05;18.87;;;;;;;18.75;90.09;97017.71;1772070;79;20951;-81
2021/08/17 05:28:28;;;;;;;21.62;17.52;;;;;;;18.85;88.68;97035.30;1777219;80;21382;-81
2021/08/17 05:30:54;;;;;;;22.65;16.97;;;;;;;19.02;87.10;97053.23;1793118;79;20959;-83
2021/08/17 05:33:20;;;;;;;26.50;16.32;;;;;;;19.10;85.12;97051.67;1762433;81;20997;-83
2021/08/17 05:35:47;;;;;;;18.27;15.30;;;;;;;19.22;85.35;97037.75;1792386;80;21432;-82
2021/08/17 05:38:13;;;;;;;21.33;16.15;;;;;;;19.34;86.09;97044.44;1762609;81;21261;-82
2021/08/17 05:40:40;;;;;;;19.10;14.30;;;;;;;19.44;86.58;97051.28;1761157;81;21415;-82
2021/08/17 05:43:06;;;;;;;15.32;13.70;;;;;;;19.46;83.10;97055.55;1776445;80;20966;-80
2021/08/17 05:45:34;;;;;;;19.48;13.83;;;;;;;19.55;83.68;97062.00;1802135;79;21392;-80
2021/08/17 05:48:00;;;;;;;16.30;12.90;;;;;;;19.64;83.30;97072.51;1802852;79;21383;-82
2021/08/17 05:50:27;;;;;;;18.30;14.35;;;;;;;19.67;82.04;97071.41;1809362;79;21005;-81
2021/08/17 05:52:53;;;;;;;19.40;13.60;;;;;;;19.71;82.92;97064.77;1804317;79;21032;-80
2021/08/17 05:55:21;;;;;;;17.30;13.55;;;;;;;19.74;83.17;97067.22;1803289;79;20981;-82
2021/08/17 05:57:57;;;;;;;19.07;14.00;;;;;;;19.75;83.64;97065.75;1812625;79;21021;-81
2021/08/17 06:00:25;;;;;;;16.35;13.20;;;;;;;19.83;83.87;97057.05;1809624;79;21033;-81
2021/08/17 06:02:52;;;;;;;19.40;13.15;;;;;;;19.89;83.96;97066.45;1805494;79;21001;-82
2021/08/17 06:05:19;;;;;;;21.90;15.00;;;;;;;19.88;82.86;97066.94;1808461;79;20977;-81
2021/08/17 06:07:47;;;;;;;21.97;15.93;;;;;;;19.92;83.67;97087.21;1810861;79;21032;-84
2021/08/17 06:10:15;;;;;;;20.08;14.55;;;;;;;19.88;81.91;97107.27;1773779;80;21029;-86
2021/08/17 06:12:43;;;;;;;19.20;14.73;;;;;;;19.87;81.73;97104.22;1803502;79;21050;-85
2021/08/17 06:15:12;;;;;;;22.05;15.25;;;;;;;19.94;82.51;97095.16;1773140;80;21003;-83
2021/08/17 06:17:39;;;;;;;25.20;19.98;;;;;;;20.03;80.82;97076.95;1760668;80;20984;-82
2021/08/17 06:20:09;;;;;;;28.23;20.17;;;;;;;20.13;81.99;97067.61;1801711;79;21021;-84
2021/08/17 06:22:36;;;;;;;20.30;16.30;;;;;;;20.23;81.65;97075.77;1798998;79;21005;-82
2021/08/17 06:25:04;;;;;;;20.27;15.23;;;;;;;20.30;81.50;97074.26;1806692;79;20938;-84
2021/08/17 06:27:36;;;;;;;20.25;16.10;;;;;;;20.43;81.38;97069.20;1786155;80;21403;-86
2021/08/17 06:30:08;;;;;;;18.65;16.12;;;;;;;20.57;81.54;97047.34;1802677;79;21003;-85
2021/08/17 06:32:35;;;;;;;24.50;15.38;;;;;;;20.73;81.53;97054.09;1794568;79;21083;-82
2021/08/17 06:35:01;;;;;;;19.62;16.52;;;;;;;20.86;81.24;97062.42;1790995;79;20976;-84
2021/08/17 06:37:29;;;;;;;19.95;16.37;;;;;;;20.95;81.09;97063.88;1796809;79;21337;-82
2021/08/17 06:39:56;;;;;;;18.05;16.25;;;;;;;21.02;80.91;97061.98;1787632;80;21004;-82
2021/08/17 06:42:23;;;;;;;19.02;16.07;;;;;;;21.09;80.87;97047.84;1790156;80;20985;-83
2021/08/17 06:44:49;;;;;;;18.42;15.58;;;;;;;21.18;80.91;97043.98;1790007;80;20991;-81
2021/08/17 06:47:16;;;;;;;22.62;15.85;;;;;;;21.25;80.80;97050.52;1800380;79;21479;-84
2021/08/17 06:49:43;;;;;;;19.05;16.17;;;;;;;21.30;80.71;97055.00;1793101;79;21027;-81
2021/08/17 06:52:09;;;;;;;20.10;15.78;;;;;;;21.35;80.17;97045.17;1792207;79;21314;-82
2021/08/17 06:54:36;;;;;;;20.97;15.65;;;;;;;21.41;80.24;97045.96;1780201;80;21011;-83
2021/08/17 06:57:03;;;;;;;18.82;15.32;;;;;;;21.46;79.85;97053.14;1775138;81;21431;-86
2021/08/17 06:59:30;;;;;;;22.85;17.70;;;;;;;21.48;78.98;97066.00;1779499;80;20944;-85
2021/08/17 07:01:56;;;;;;;25.25;17.00;;;;;;;21.49;77.60;97070.40;1790982;80;21452;-85
2021/08/17 07:04:22;;;;;;;17.62;15.20;;;;;;;21.54;78.33;97069.14;1791377;80;21051;-84
2021/08/17 07:06:49;;;;;;;20.75;16.85;;;;;;;21.56;77.05;97061.75;1791517;80;20952;-83
2021/08/17 07:09:15;;;;;;;17.82;16.02;;;;;;;21.56;77.92;97061.75;1791300;80;21024;-81
2021/08/17 07:11:42;;;;;;;17.17;15.32;;;;;;;21.63;78.30;97062.41;1791103;80;21361;-80
2021/08/17 07:14:08;;;;;;;22.98;14.93;;;;;;;21.66;77.00;97074.75;1789594;80;21374;-82
2021/08/17 07:16:36;;;;;;;18.00;14.83;;;;;;;21.70;77.59;97070.80;1791727;80;20984;-81
2021/08/17 07:19:04;;;;;;;21.20;14.83;;;;;;;21.75;76.61;97064.52;1795817;79;20963;-82
2021/08/17 07:21:30;;;;;;;21.93;14.20;;;;;;;21.85;77.46;97067.73;1789593;79;20984;-82
2021/08/17 07:23:57;;;;;;;17.23;13.45;;;;;;;21.98;77.29;97060.23;1787678;79;20983;-82
2021/08/17 07:26:23;;;;;;;18.55;16.60;;;;;;;22.11;77.09;97061.30;1796924;79;21390;-79
2021/08/17 07:28:50;;;;;;;26.73;20.32;;;;;;;22.20;76.46;97067.69;1795775;79;20937;-79
2021/08/17 07:31:16;;;;;;;22.60;16.90;;;;;;;22.25;76.69;97065.92;1797061;79;21023;-79
2021/08/17 07:33:43;;;;;;;21.95;16.70;;;;;;;22.32;76.54;97072.93;1776646;79;20975;-80
2021/08/17 07:36:11;;;;;;;24.57;16.45;;;;;;;22.38;75.88;97072.38;1758427;81;21397;-81
2021/08/17 07:38:37;;;;;;;29.92;16.93;;;;;;;22.41;75.61;97062.14;1759326;81;21404;-80
2021/08/17 07:41:04;;;;;;;21.52;15.28;;;;;;;22.45;74.85;97068.09;1761014;81;21032;-83
2021/08/17 07:43:31;;;;;;;22.42;16.75;;;;;;;22.46;73.57;97066.27;1760254;81;20958;-84
2021/08/17 07:45:58;;;;;;;23.07;15.80;;;;;;;22.50;74.46;97059.06;1782205;79;21511;-86
2021/08/17 07:48:24;;;;;;;17.52;15.32;;;;;;;22.57;74.28;97070.18;1779980;79;21483;-86
2021/08/17 07:50:52;;;;;;;23.87;16.95;;;;;;;22.63;74.21;97070.11;1780504;79;20999;-87
2021/08/17 07:53:19;;;;;;;23.18;15.88;;;;;;;22.67;73.58;97070.18;1742272;82;21077;-85
2021/08/17 07:55:45;;;;;;;21.25;16.48;;;;;;;22.70;73.18;97071.73;1778726;79;21484;-86
2021/08/17 07:58:12;;;;;;;20.97;15.55;;;;;;;22.74;73.37;97063.19;1760082;81;21017;-86
2021/08/17 08:00:39;;;;;;;21.23;16.42;;;;;;;22.81;72.60;97056.70;1777007;79;21023;-85
2021/08/17 08:03:05;;;;;;;21.68;16.07;;;;;;;22.90;73.46;97057.18;1777233;79;20974;-83
2021/08/17 08:05:32;;;;;;;23.87;16.12;;;;;;;23.01;73.12;97053.45;1779813;79;20999;-84
2021/08/17 08:07:58;;;;;;;18.40;15.55;;;;;;;23.18;72.34;97047.74;1744501;82;20959;-83
2021/08/17 08:10:25;;;;;;;24.82;15.63;;;;;;;23.36;72.50;97042.94;1776231;79;20991;-82
2021/08/17 08:12:51;;;;;;;19.12;15.68;;;;;;;23.48;72.51;97034.13;1744245;82;21026;-83
2021/08/17 08:15:21;;;;;;;24.50;16.05;;;;;;;23.64;72.63;97036.17;1738049;82;21420;-84
2021/08/17 08:17:47;;;;;;;22.80;16.00;;;;;;;23.76;71.49;97036.81;1785682;80;21496;-84
2021/08/17 08:20:14;;;;;;;26.52;17.40;;;;;;;23.94;71.69;97039.53;1764278;79;21031;-85
2021/08/17 08:22:41;;;;;;;24.70;16.57;;;;;;;24.08;71.21;97035.42;1731796;82;20982;-84
2021/08/17 08:25:08;;;;;;;20.82;15.00;;;;;;;24.20;69.22;97036.07;1790877;80;21628;-85
2021/08/17 08:27:36;;;;;;;23.07;16.50;;;;;;;24.32;69.46;97033.98;1759078;81;21451;-86
2021/08/17 08:30:05;;;;;;;23.83;15.72;;;;;;;24.50;68.84;97036.65;1752870;81;21021;-85
2021/08/17 08:32:32;;;;;;;21.73;14.98;;;;;;;24.64;68.35;97043.37;1804113;79;20980;-86
2021/08/17 08:34:58;;;;;;;22.50;15.03;;;;;;;24.78;67.89;97038.36;1791281;80;20995;-89
2021/08/17 08:37:25;;;;;;;24.92;15.03;;;;;;;24.88;68.06;97041.02;1784642;80;21320;-84
2021/08/17 08:39:55;;;;;;;24.37;15.08;;;;;;;24.96;66.94;97046.49;1775255;81;21114;-87
2021/08/17 08:42:22;;;;;;;21.85;13.75;;;;;;;24.98;67.05;97042.23;1775965;81;20999;-86
2021/08/17 08:44:49;;;;;;;25.08;15.13;;;;;;;25.00;67.10;97038.36;1780570;79;21008;-90
2021/08/17 08:47:17;;;;;;;19.42;14.40;;;;;;;25.03;67.24;97038.05;1792046;80;21456;-86
2021/08/17 08:49:44;;;;;;;20.52;13.90;;;;;;;25.06;66.35;97046.36;1792638;79;21527;-83
2021/08/17 08:52:11;;;;;;;17.90;13.55;;;;;;;25.04;66.50;97045.69;1794540;79;21029;-84
2021/08/17 08:54:37;;;;;;;20.08;13.90;;;;;;;25.02;66.50;97047.69;1820106;79;21017;-86
2021/08/17 08:57:04;;;;;;;35.15;27.85;;;;;;;25.05;66.58;97046.03;1811520;79;21018;-86
2021/08/17 08:59:31;;;;;;;27.32;17.17;;;;;;;25.09;67.03;97037.92;1783302;79;21047;-86
2021/08/17 09:02:11;;;;;;;26.12;16.50;;;;;;;25.12;67.15;97038.10;1792415;80;21028;-85
2021/08/17 09:04:40;;;;;;;19.80;13.93;;;;;;;25.12;67.47;97041.64;1762042;81;21066;-85
2021/08/17 09:07:06;;;;;;;22.77;13.93;;;;;;;25.08;67.37;97042.14;1734372;81;20974;-86
2021/08/17 09:09:34;;;;;;;21.48;13.75;;;;;;;25.10;67.88;97051.81;1762302;81;21020;-86
2021/08/17 09:12:01;;;;;;;18.37;13.58;;;;;;;25.11;67.69;97048.08;1762363;81;20984;-85
2021/08/17 09:14:35;;;;;;;21.12;13.80;;;;;;;25.06;67.92;97047.72;1761954;81;21024;-85
2021/08/17 09:17:05;;;;;;;21.40;14.00;;;;;;;25.01;68.10;97054.99;1762355;81;21430;-85
2021/08/17 09:19:39;;;;;;;20.27;13.62;;;;;;;24.99;68.74;97048.03;1778390;80;20945;-86
2021/08/17 09:22:20;;;;;;;17.07;13.08;;;;;;;24.99;69.01;97048.86;1793433;80;21005;-86
2021/08/17 09:24:50;;;;;;;17.37;13.05;;;;;;;24.95;69.32;97055.61;1762306;81;21424;-86
2021/08/17 09:27:21;;;;;;;19.45;14.18;;;;;;;24.97;69.52;97059.03;1762247;81;20971;-85
2021/08/17 09:29:53;;;;;;;17.77;14.28;;;;;;;25.01;69.52;97055.48;1762209;81;21011;-85
2021/08/17 09:32:26;;;;;;;15.43;13.45;;;;;;;25.02;69.83;97055.82;1725925;83;21454;-85
2021/08/17 09:34:56;;;;;;;17.87;14.18;;;;;;;25.01;70.31;97060.91;1759766;81;21075;-84
2021/08/17 09:37:33;;;;;;;14.68;13.10;;;;;;;24.94;70.83;97062.56;1760330;81;20999;-84
2021/08/17 09:40:03;;;;;;;19.25;12.23;;;;;;;24.92;70.84;97064.08;1759495;81;21015;-85
2021/08/17 09:42:34;;;;;;;14.73;13.05;;;;;;;24.93;70.67;97058.13;1760123;81;20973;-85
2021/08/17 09:45:15;;;;;;;17.67;13.45;;;;;;;24.96;71.34;97060.05;1759623;81;20997;-84
2021/08/17 09:47:47;;;;;;;16.15;13.85;;;;;;;24.96;72.29;97061.89;1759580;81;21079;-85
2021/08/17 09:50:21;;;;;;;18.00;12.40;;;;;;;25.02;72.40;97066.17;1757387;80;21054;-85
2021/08/17 09:52:51;;;;;;;14.35;12.60;;;;;;;25.09;72.62;97067.73;1762080;81;21042;-85
2021/08/17 09:55:22;;;;;;;18.85;13.13;;;;;;;25.23;73.20;97075.77;1760312;81;21039;-85
2021/08/17 09:57:49;;;;;;;14.53;12.82;;;;;;;25.38;73.33;97073.31;1760894;81;21003;-85
2021/08/17 10:00:17;;;;;;;13.40;12.00;;;;;;;25.56;73.32;97072.38;1781548;80;21110;-85
2021/08/17 10:02:47;;;;;;;22.48;16.97;;;;;;;25.65;72.94;97083.61;1790223;80;20965;-85
2021/08/17 10:05:15;;;;;;;25.10;17.52;;;;;;;25.80;72.94;97089.77;1790539;80;21008;-86
2021/08/17 10:07:43;;;;;;;12.95;11.63;;;;;;;25.89;72.14;97114.56;1790562;80;21003;-86
2021/08/17 10:10:11;;;;;;;14.98;11.70;;;;;;;25.95;67.20;97131.55;1768012;80;21081;-86
2021/08/17 10:12:39;;;;;;;14.68;12.93;;;;;;;25.90;67.18;97133.08;1761070;81;20984;-86
2021/08/17 10:15:09;;;;;;;19.12;12.43;;;;;;;25.87;67.18;97127.96;1759634;81;21044;-86
2021/08/17 10:17:36;;;;;;;16.17;12.78;;;;;;;25.86;67.28;97144.74;1759148;81;21449;-86
2021/08/17 10:20:05;;;;;;;14.95;11.08;;;;;;;25.93;67.34;97147.16;1781676;80;21047;-86
2021/08/17 10:22:31;;;;;;;15.40;11.20;;;;;;;26.07;62.09;97147.55;1790700;80;21012;-86
2021/08/17 10:25:15;;;;;;;16.05;12.55;;;;;;;26.19;61.06;97139.91;1769473;80;21432;-86
2021/08/17 10:27:37;;;;;;;17.00;12.88;;;;;;;26.26;63.21;97141.50;1764050;80;21082;-86
2021/08/17 10:30:21;;;;;;;15.88;12.00;;;;;;;26.50;65.04;97152.93;1764039;81;20990;-86
2021/08/17 10:33:00;;;;;;;15.00;11.28;;;;;;;26.75;63.26;97154.30;1776947;78;21043;-86
2021/08/17 10:35:34;;;;;;;12.88;11.63;;;;;;;27.01;62.16;97159.61;1795240;80;22417;-86
2021/08/17 10:38:12;;;;;;;13.20;11.78;;;;;;;27.23;62.04;97157.72;1795213;80;20954;-86
2021/08/17 10:40:57;;;;;;;13.40;11.70;;;;;;;27.37;62.37;97162.95;1781405;80;21009;-86
2021/08/17 10:43:38;;;;;;;13.10;11.73;;;;;;;27.53;62.41;97174.31;1795040;80;21453;-86
2021/08/17 10:46:10;;;;;;;15.40;11.15;;;;;;;27.88;62.10;97174.05;1795182;80;21541;-86
2021/08/17 10:48:54;;;;;;;15.43;10.98;;;;;;;28.70;56.75;97175.52;1798898;78;21004;-86
2021/08/17 10:51:25;;;;;;;15.90;10.97;;;;;;;29.21;57.89;97173.23;1821975;78;21038;-86
2021/08/17 10:54:09;;;;;;;11.93;10.13;;;;;;;29.42;53.16;97169.80;1795494;80;21211;-85
2021/08/17 10:56:38;;;;;;;10.53;9.50;;;;;;;29.89;53.65;97177.86;1795092;80;21044;-86
2021/08/17 10:59:07;;;;;;;26.95;21.40;;;;;;;29.98;52.10;97173.13;1794755;80;21066;-85
2021/08/17 11:01:45;;;;;;;14.35;11.20;;;;;;;30.42;52.35;97177.69;1781482;80;21020;-86
2021/08/17 11:04:19;;;;;;;11.55;9.23;;;;;;;31.31;49.28;97178.05;1795525;80;20989;-86
2021/08/17 11:06:48;;;;;;;11.83;8.60;;;;;;;32.03;44.57;97176.52;1796352;79;21027;-78
2021/08/17 11:09:30;;;;;;;9.95;8.63;;;;;;;32.74;39.56;97177.20;1793496;80;21008;-77
2021/08/17 11:12:04;;;;;;;11.50;9.50;;;;;;;33.05;43.20;97181.82;1791939;79;20989;-79
2021/08/17 11:14:34;;;;;;;9.80;8.78;;;;;;;32.86;43.62;97182.06;1807588;79;21007;-79
2021/08/17 11:17:07;;;;;;;10.70;8.55;;;;;;;32.47;44.19;97174.93;1805237;79;20959;-79
2021/08/17 11:19:38;;;;;;;10.03;8.68;;;;;;;31.96;41.94;97176.48;1803058;78;21050;-78
2021/08/17 11:22:09;;;;;;;10.15;8.90;;;;;;;31.39;42.09;97180.66;1804248;79;21429;-79